createdAt,value
2019-04-04T00:03:21.182Z,5.52
2019-04-04T00:05:56.737Z,5.36
2019-04-04T00:08:32.831Z,5.16
2019-04-04T00:11:07.367Z,5.24
2019-04-04T00:13:36.696Z,5.34
2019-04-04T00:16:06.019Z,5.38
2019-04-04T00:18:35.350Z,5.28
2019-04-04T00:21:04.677Z,5.27
2019-04-04T00:23:34.007Z,5.30
2019-04-04T00:26:03.666Z,5.30
2019-04-04T00:28:33.070Z,5.34
2019-04-04T00:31:02.415Z,5.31
2019-04-04T00:33:31.736Z,5.17
2019-04-04T00:36:02.658Z,5.24
2019-04-04T00:38:38.502Z,5.28
2019-04-04T00:41:14.339Z,5.22
2019-04-04T00:43:43.662Z,5.24
2019-04-04T00:46:13.008Z,5.16
2019-04-04T00:48:42.328Z,5.31
2019-04-04T00:51:11.927Z,5.49
2019-04-04T00:53:43.097Z,5.37
2019-04-04T00:56:18.124Z,5.26
2019-04-04T00:58:58.093Z,5.31
2019-04-04T01:01:27.423Z,5.31
2019-04-04T01:03:56.746Z,5.26
2019-04-04T01:06:26.086Z,5.22
2019-04-04T01:08:55.408Z,5.21
2019-04-04T01:11:29.966Z,5.20
2019-04-04T01:13:59.294Z,5.14
2019-04-04T01:16:28.627Z,5.11
2019-04-04T01:18:57.965Z,5.04
2019-04-04T01:21:27.282Z,4.98
2019-04-04T01:23:58.354Z,5.12
2019-04-04T01:26:46.745Z,5.14
2019-04-04T01:29:16.106Z,5.12
2019-04-04T01:31:45.986Z,5.05
2019-04-04T01:34:25.847Z,5.00
2019-04-04T01:36:56.413Z,4.82
2019-04-04T01:39:36.220Z,4.94
2019-04-04T01:42:07.174Z,4.87
2019-04-04T01:44:42.829Z,4.87
2019-04-04T01:47:18.698Z,4.83
2019-04-04T01:49:48.044Z,4.94
2019-04-04T01:52:17.381Z,4.83
2019-04-04T01:54:46.725Z,4.94
2019-04-04T01:57:16.054Z,4.88
2019-04-04T01:59:45.396Z,4.92
2019-04-04T02:02:17.666Z,4.79
2019-04-04T02:04:51.013Z,4.82
2019-04-04T02:07:20.351Z,4.75
2019-04-04T02:09:49.670Z,4.82
2019-04-04T02:12:19.021Z,4.67
2019-04-04T02:14:48.343Z,4.73
2019-04-04T02:17:17.675Z,4.84
2019-04-04T02:19:47.022Z,4.99
2019-04-04T02:22:16.357Z,4.85
2019-04-04T02:24:45.695Z,4.79
2019-04-04T02:27:15.030Z,4.73
2019-04-04T02:29:44.363Z,4.67
2019-04-04T02:35:49.076Z,4.76
2019-04-04T02:38:18.427Z,4.70
2019-04-04T02:41:06.879Z,4.71
2019-04-04T02:43:36.452Z,4.67
2019-04-04T02:46:05.792Z,4.70
2019-04-04T02:48:35.144Z,4.68
2019-04-04T02:51:07.042Z,4.66
2019-04-04T02:53:41.099Z,4.71
2019-04-04T02:56:10.437Z,4.73
2019-04-04T02:58:39.843Z,4.64
2019-04-04T03:01:09.180Z,4.77
2019-04-04T03:03:41.029Z,4.79
2019-04-04T03:06:14.683Z,4.71
2019-04-04T03:08:44.162Z,4.69
2019-04-04T03:11:13.749Z,4.70
2019-04-04T03:13:48.764Z,4.66
2019-04-04T03:16:21.039Z,4.69
2019-04-04T03:18:58.825Z,4.67
2019-04-04T03:21:28.168Z,4.77
2019-04-04T03:23:59.162Z,4.93
2019-04-04T03:26:28.501Z,4.83
2019-04-04T03:28:57.849Z,4.84
2019-04-04T03:31:27.189Z,4.92
2019-04-04T03:33:56.529Z,4.93
2019-04-04T03:36:25.871Z,4.89
2019-04-04T03:38:55.214Z,4.93
2019-04-04T03:41:24.543Z,5.03
2019-04-04T03:43:53.889Z,4.95
2019-04-04T03:46:23.239Z,5.02
2019-04-04T03:48:52.572Z,4.92
2019-04-04T03:51:21.913Z,4.89
2019-04-04T03:56:38.798Z,4.91
2019-04-04T03:59:22.220Z,4.84
2019-04-04T04:01:51.573Z,4.95
2019-04-04T04:04:20.913Z,4.86
2019-04-04T04:06:50.253Z,4.79
2019-04-04T04:09:19.603Z,4.84
2019-04-04T04:11:48.954Z,4.79
2019-04-04T04:14:21.618Z,4.78
2019-04-04T04:17:09.071Z,4.69
2019-04-04T04:19:44.675Z,4.73
2019-04-04T04:22:18.016Z,4.80
2019-04-04T04:28:24.250Z,4.60
2019-04-04T04:30:53.594Z,4.61
2019-04-04T04:33:22.941Z,4.64
2019-04-04T04:35:52.294Z,4.68
2019-04-04T04:38:25.377Z,4.77
2019-04-04T04:40:58.299Z,4.98
2019-04-04T04:43:32.230Z,4.87
2019-04-04T04:46:08.210Z,4.89
2019-04-04T04:48:37.587Z,4.87
2019-04-04T04:51:06.902Z,4.76
2019-04-04T04:53:36.245Z,4.66
2019-04-04T04:56:05.587Z,4.57
2019-04-04T04:58:34.920Z,4.64
2019-04-04T05:01:04.279Z,4.52
2019-04-04T05:03:33.616Z,4.74
2019-04-04T05:06:22.067Z,4.53
2019-04-04T05:08:51.411Z,4.65
2019-04-04T05:11:21.087Z,4.71
2019-04-04T05:13:50.437Z,4.60
2019-04-04T05:16:19.776Z,4.80
2019-04-04T05:18:49.117Z,4.55
2019-04-04T05:21:24.898Z,4.63
2019-04-04T05:24:28.240Z,4.67
2019-04-04T05:26:57.602Z,4.80
2019-04-04T05:29:26.936Z,4.63
2019-04-04T05:31:56.356Z,4.58
2019-04-04T05:34:25.716Z,4.82
2019-04-04T05:36:55.036Z,4.68
2019-04-04T05:39:24.656Z,4.71
2019-04-04T05:41:54.035Z,4.65
2019-04-04T05:44:23.348Z,4.93
2019-04-04T05:46:52.688Z,4.87
2019-04-04T05:49:22.043Z,4.80
2019-04-04T05:51:51.384Z,4.92
2019-04-04T05:54:20.723Z,4.86
2019-04-04T05:56:50.077Z,4.87
2019-04-04T05:59:19.442Z,4.88
2019-04-04T06:01:48.763Z,4.68
2019-04-04T06:04:19.581Z,4.60
2019-04-04T06:06:55.753Z,4.61
2019-04-04T06:09:31.340Z,4.65
2019-04-04T06:12:13.373Z,4.75
2019-04-04T06:14:43.728Z,4.86
2019-04-04T06:17:19.226Z,4.71
2019-04-04T06:19:48.593Z,4.84
2019-04-04T06:22:19.065Z,5.02
2019-04-04T06:24:54.311Z,4.82
2019-04-04T06:27:23.643Z,4.81
2019-04-04T06:29:52.983Z,4.80
2019-04-04T06:32:24.307Z,4.89
2019-04-04T06:34:56.753Z,4.87
2019-04-04T06:37:34.128Z,4.96
2019-04-04T06:40:48.432Z,4.86
2019-04-04T06:43:19.415Z,4.64
2019-04-04T06:45:50.404Z,5.01
2019-04-04T06:48:21.753Z,4.91
2019-04-04T06:50:52.996Z,4.74
2019-04-04T06:53:23.987Z,4.78
2019-04-04T06:55:54.992Z,4.83
2019-04-04T06:58:25.968Z,4.92
2019-04-04T07:00:56.951Z,4.81
2019-04-04T07:03:27.860Z,5.02
2019-04-04T07:06:16.427Z,4.87
2019-04-04T07:08:46.787Z,5.00
2019-04-04T07:11:35.962Z,5.25
2019-04-04T07:14:05.321Z,5.21
2019-04-04T07:16:36.760Z,5.07
2019-04-04T07:19:16.680Z,5.08
2019-04-04T07:22:05.497Z,5.06
2019-04-04T07:24:34.867Z,5.30
2019-04-04T07:27:04.192Z,5.24
2019-04-04T07:29:33.531Z,5.00
2019-04-04T07:32:02.883Z,5.28
2019-04-04T07:34:33.863Z,5.32
2019-04-04T07:37:03.215Z,5.31
2019-04-04T07:39:34.262Z,5.04
2019-04-04T07:42:05.354Z,5.32
2019-04-04T07:44:36.333Z,5.21
2019-04-04T07:47:19.676Z,5.31
2019-04-04T07:49:50.639Z,5.53
2019-04-04T07:52:21.619Z,5.28
2019-04-04T07:54:52.609Z,5.46
2019-04-04T07:57:23.590Z,5.37
2019-04-04T07:59:54.565Z,5.47
2019-04-04T08:02:25.551Z,5.57
2019-04-04T08:04:56.533Z,5.73
2019-04-04T08:07:27.532Z,5.63
2019-04-04T08:09:58.507Z,5.39
2019-04-04T08:12:29.499Z,5.50
2019-04-04T08:15:00.473Z,5.58
2019-04-04T08:17:31.466Z,5.63
2019-04-04T08:20:02.442Z,5.77
2019-04-04T08:22:33.458Z,5.77
2019-04-04T08:25:44.338Z,5.62
2019-04-04T08:28:15.328Z,5.65
2019-04-04T08:30:46.305Z,5.71
2019-04-04T08:33:17.284Z,5.67
2019-04-04T08:35:48.277Z,5.71
2019-04-04T08:38:19.240Z,6.02
2019-04-04T08:40:50.203Z,5.88
2019-04-04T08:43:33.228Z,5.63
2019-04-04T08:46:04.276Z,5.66
2019-04-04T08:48:35.268Z,5.73
2019-04-04T08:51:06.306Z,5.93
2019-04-04T08:53:40.311Z,6.07
2019-04-04T08:56:27.426Z,6.11
2019-04-04T08:58:58.401Z,6.21
2019-04-04T09:01:29.368Z,6.38
2019-04-04T09:04:00.359Z,6.26
2019-04-04T09:06:31.330Z,6.07
2019-04-04T09:09:21.658Z,6.23
2019-04-04T09:11:52.627Z,6.15
2019-04-04T09:14:23.613Z,6.33
2019-04-04T09:16:54.586Z,6.12
2019-04-04T09:19:25.558Z,6.11
2019-04-04T09:21:54.884Z,6.19
2019-04-04T09:24:26.299Z,6.15
2019-04-04T09:26:57.276Z,6.01
2019-04-04T09:29:28.260Z,6.11
2019-04-04T09:31:57.588Z,6.08
2019-04-04T09:34:26.990Z,5.79
2019-04-04T09:36:56.332Z,5.71
2019-04-04T09:39:25.673Z,6.00
2019-04-04T09:41:55.008Z,5.99
2019-04-04T09:44:24.348Z,6.15
2019-04-04T09:47:04.791Z,6.03
2019-04-04T09:49:30.416Z,5.89
2019-04-04T09:52:01.391Z,6.13
2019-04-04T09:54:30.732Z,6.08
2019-04-04T09:57:01.701Z,6.22
2019-04-04T09:59:31.047Z,6.08
2019-04-04T10:02:02.016Z,5.89
2019-04-04T10:04:32.992Z,6.07
2019-04-04T10:07:02.325Z,5.81
2019-04-04T10:09:33.299Z,5.96
2019-04-04T10:12:04.268Z,6.30
2019-04-04T10:14:35.344Z,6.14
2019-04-04T10:23:08.276Z,5.94
2019-04-04T10:25:37.800Z,5.98
2019-04-04T10:28:07.147Z,5.95
2019-04-04T10:30:36.593Z,6.22
2019-04-04T10:33:05.983Z,6.10
2019-04-04T10:35:36.963Z,6.13
2019-04-04T10:38:07.936Z,6.16
2019-04-04T10:40:38.916Z,6.22
2019-04-04T10:43:08.519Z,6.25
2019-04-04T10:45:57.200Z,6.15
2019-04-04T10:48:26.533Z,6.07
2019-04-04T10:50:55.864Z,5.94
2019-04-04T10:53:26.840Z,5.97
2019-04-04T10:55:56.168Z,6.03
2019-04-04T10:58:25.505Z,6.08
2019-04-04T11:01:14.193Z,5.96
2019-04-04T11:03:43.632Z,6.28
2019-04-04T11:06:12.980Z,6.34
2019-04-04T11:08:42.308Z,5.97
2019-04-04T11:11:11.654Z,6.07
2019-04-04T11:13:41.000Z,6.03
2019-04-04T11:16:10.321Z,5.93
2019-04-04T11:18:39.661Z,6.36
2019-04-04T11:21:08.999Z,6.36
2019-04-04T11:23:38.333Z,6.47
2019-04-04T11:26:07.664Z,6.15
2019-04-04T11:28:37.004Z,6.73
2019-04-04T11:31:06.337Z,6.74
2019-04-04T11:33:35.669Z,6.60
2019-04-04T11:36:05.081Z,6.29
2019-04-04T11:38:34.407Z,6.01
2019-04-04T11:41:03.810Z,5.92
2019-04-04T11:43:33.152Z,5.70
2019-04-04T11:46:02.489Z,6.19
2019-04-04T11:48:31.858Z,6.26
2019-04-04T11:51:01.168Z,6.33
2019-04-04T11:53:32.276Z,6.37
2019-04-04T11:56:01.850Z,6.45
2019-04-04T11:58:32.816Z,6.38
2019-04-04T12:03:41.691Z,6.44
2019-04-04T12:06:12.657Z,6.42
2019-04-04T12:08:43.637Z,6.47
2019-04-04T12:11:12.968Z,6.47
2019-04-04T12:13:43.951Z,6.40
2019-04-04T12:16:13.284Z,6.32
2019-04-04T12:18:44.267Z,6.11
2019-04-04T12:21:15.231Z,6.16
2019-04-04T12:23:46.195Z,6.26
2019-04-04T12:26:15.609Z,6.31
2019-04-04T12:28:44.939Z,6.32
2019-04-04T12:31:14.289Z,6.15
2019-04-04T12:33:43.860Z,6.13
2019-04-04T12:36:23.994Z,6.11
2019-04-04T12:42:03.554Z,5.82
2019-04-04T12:44:33.037Z,6.02
2019-04-04T12:47:02.428Z,5.88
2019-04-04T12:49:31.773Z,5.58
2019-04-04T12:52:01.488Z,5.74
2019-04-04T12:54:44.236Z,5.91
2019-04-04T12:57:13.606Z,5.95
2019-04-04T12:59:42.942Z,5.89
2019-04-04T13:02:12.285Z,5.96
2019-04-04T13:04:43.263Z,5.98
2019-04-04T13:07:12.705Z,6.00
2019-04-04T13:09:43.666Z,6.02
2019-04-04T13:12:12.995Z,6.03
2019-04-04T13:15:01.442Z,5.87
2019-04-04T13:17:30.814Z,5.80
2019-04-04T13:20:00.201Z,5.75
2019-04-04T13:22:29.708Z,5.86
2019-04-04T13:24:59.250Z,5.89
2019-04-04T13:27:28.736Z,5.80
2019-04-04T13:29:58.137Z,5.84
2019-04-04T13:32:27.596Z,5.90
2019-04-04T13:34:59.916Z,5.82
2019-04-04T13:37:38.894Z,5.72
2019-04-04T13:43:42.655Z,5.81
2019-04-04T13:46:12.003Z,5.77
2019-04-04T13:48:43.511Z,6.01
2019-04-04T13:51:20.640Z,5.89
2019-04-04T13:53:58.002Z,6.09
2019-04-04T13:56:29.271Z,6.13
2019-04-04T13:59:17.482Z,6.02
2019-04-04T14:01:46.823Z,6.06
2019-04-04T14:04:16.260Z,5.88
2019-04-04T14:06:45.600Z,5.81
2019-04-04T14:10:17.084Z,5.46
2019-04-04T14:12:50.105Z,5.87
2019-04-04T14:15:19.522Z,5.90
2019-04-04T14:17:48.845Z,6.08
2019-04-04T14:20:18.183Z,5.96
2019-04-04T14:22:47.735Z,5.81
2019-04-04T14:25:23.952Z,5.94
2019-04-04T14:27:58.709Z,6.15
2019-04-04T14:30:28.023Z,6.23
2019-04-04T14:33:03.199Z,6.44
2019-04-04T14:35:32.518Z,6.31
2019-04-04T14:38:01.843Z,6.33
2019-04-04T14:40:31.173Z,6.31
2019-04-04T14:43:00.573Z,6.40
2019-04-04T14:45:29.906Z,6.51
2019-04-04T14:47:59.645Z,6.46
2019-04-04T14:50:28.968Z,6.57
2019-04-04T14:52:58.285Z,6.66
2019-04-04T14:55:27.625Z,6.89
2019-04-04T14:57:57.257Z,6.87
2019-04-04T15:00:26.580Z,6.96
2019-04-04T15:02:55.914Z,6.81
2019-04-04T15:05:25.235Z,6.92
2019-04-04T15:07:54.556Z,6.52
2019-04-04T15:10:23.893Z,6.39
2019-04-04T15:12:53.213Z,6.49
2019-04-04T15:15:22.533Z,6.63
2019-04-04T15:17:52.214Z,6.47
2019-04-04T15:20:21.541Z,6.63
2019-04-04T15:22:51.192Z,6.67
2019-04-04T15:25:20.533Z,6.73
2019-04-04T15:27:49.853Z,6.77
2019-04-04T15:30:24.990Z,6.73
2019-04-04T15:32:54.328Z,6.48
2019-04-04T15:35:23.646Z,6.40
2019-04-04T15:37:52.965Z,6.47
2019-04-04T15:40:22.297Z,6.47
2019-04-04T15:42:51.630Z,6.48
2019-04-04T15:45:20.952Z,6.57
2019-04-04T15:47:50.291Z,6.52
2019-04-04T15:50:38.951Z,6.58
2019-04-04T15:53:08.285Z,6.72
2019-04-04T15:55:37.750Z,6.67
2019-04-04T15:58:07.171Z,6.57
2019-04-04T16:00:36.440Z,6.62
2019-04-04T16:03:05.763Z,6.78
2019-04-04T16:05:35.101Z,6.97
2019-04-04T16:08:04.521Z,6.82
2019-04-04T16:10:33.834Z,7.07
2019-04-04T16:13:03.184Z,7.02
2019-04-04T16:15:32.545Z,7.04
2019-04-04T16:18:02.215Z,7.50
2019-04-04T16:20:31.571Z,7.35
2019-04-04T16:23:00.929Z,7.35
2019-04-04T16:25:30.243Z,7.23
2019-04-04T16:27:59.597Z,7.04
2019-04-04T16:30:29.026Z,7.01
2019-04-04T16:32:58.357Z,6.93
2019-04-04T16:35:27.718Z,6.89
2019-04-04T16:37:57.092Z,6.70
2019-04-04T16:40:26.467Z,6.65
2019-04-04T16:42:55.873Z,6.74
2019-04-04T16:45:25.254Z,6.98
2019-04-04T16:47:54.675Z,6.75
2019-04-04T16:50:24.387Z,6.76
2019-04-04T16:52:55.740Z,6.77
2019-04-04T16:55:26.752Z,6.62
2019-04-04T16:57:57.804Z,6.54
2019-04-04T17:04:00.992Z,6.59
2019-04-04T17:06:27.338Z,6.48
2019-04-04T17:08:56.804Z,6.53
2019-04-04T17:11:26.216Z,6.44
2019-04-04T17:13:57.292Z,6.47
2019-04-04T17:16:45.847Z,6.38
2019-04-04T17:19:15.315Z,6.39
2019-04-04T17:21:44.800Z,6.31
2019-04-04T17:24:14.247Z,6.43
2019-04-04T17:26:44.074Z,6.22
2019-04-04T17:29:13.589Z,6.24
2019-04-04T17:31:43.360Z,6.30
2019-04-04T17:34:34.076Z,6.24
2019-04-04T17:37:03.776Z,6.17
2019-04-04T17:39:34.915Z,6.16
2019-04-04T17:42:06.191Z,6.04
2019-04-04T17:44:54.905Z,6.04
2019-04-04T17:47:26.159Z,6.12
2019-04-04T17:49:57.318Z,5.97
2019-04-04T17:52:28.909Z,5.99
2019-04-04T17:55:17.722Z,5.98
2019-04-04T17:58:01.126Z,5.95
2019-04-04T18:00:32.316Z,5.95
2019-04-04T18:03:03.516Z,5.92
2019-04-04T18:05:34.713Z,5.97
2019-04-04T18:08:05.916Z,5.95
2019-04-04T18:10:37.123Z,5.84
2019-04-04T18:13:08.328Z,5.96
2019-04-04T18:15:37.878Z,5.91
2019-04-04T18:18:07.455Z,5.78
2019-04-04T18:20:37.030Z,5.81
2019-04-04T18:23:15.099Z,5.91
2019-04-04T18:25:49.466Z,6.01
2019-04-04T18:28:19.095Z,6.00
2019-04-04T18:30:48.675Z,5.78
2019-04-04T18:33:19.624Z,5.79
2019-04-04T18:36:08.678Z,5.66
2019-04-04T18:38:44.212Z,5.59
2019-04-04T18:41:13.774Z,5.61
2019-04-04T18:43:43.355Z,5.50
2019-04-04T18:46:12.923Z,5.63
2019-04-04T18:48:42.490Z,5.60
2019-04-04T18:51:12.069Z,5.61
2019-04-04T18:53:41.639Z,5.65
2019-04-04T18:56:11.215Z,5.57
2019-04-04T18:58:40.787Z,5.54
2019-04-04T19:01:10.365Z,5.46
2019-04-04T19:03:39.950Z,5.54
2019-04-04T19:06:28.998Z,5.59
2019-04-04T19:08:58.581Z,5.51
2019-04-04T19:11:28.626Z,5.56
2019-04-04T19:14:04.168Z,5.44
2019-04-04T19:16:53.065Z,5.56
2019-04-04T19:19:22.629Z,5.42
2019-04-04T19:21:52.197Z,5.52
2019-04-04T19:24:21.770Z,5.52
2019-04-04T19:26:51.351Z,5.49
2019-04-04T19:29:40.276Z,5.49
2019-04-04T19:32:10.335Z,5.49
2019-04-04T19:34:40.049Z,5.50
2019-04-04T19:37:09.640Z,5.53
2019-04-04T19:39:39.199Z,5.54
2019-04-04T19:42:27.880Z,5.46
2019-04-04T19:44:57.448Z,5.49
2019-04-04T19:47:27.099Z,5.50
2019-04-04T19:49:56.676Z,5.35
2019-04-04T19:52:26.451Z,5.44
2019-04-04T19:54:56.017Z,5.43
2019-04-04T19:57:25.606Z,5.44
2019-04-04T19:59:55.177Z,5.35
2019-04-04T20:02:25.283Z,5.30
2019-04-04T20:04:54.847Z,5.42
2019-04-04T20:07:26.052Z,5.52
2019-04-04T20:10:14.778Z,5.40
2019-04-04T20:12:44.338Z,5.40
2019-04-04T20:15:14.004Z,5.42
2019-04-04T20:17:43.567Z,5.37
2019-04-04T20:20:53.057Z,5.45
2019-04-04T20:23:22.603Z,5.44
2019-04-04T20:25:52.100Z,5.50
2019-04-04T20:28:21.605Z,5.58
2019-04-04T20:30:51.196Z,5.53
2019-04-04T20:33:20.941Z,5.42
2019-04-04T20:35:55.633Z,5.51
2019-04-04T20:38:25.172Z,5.49
2019-04-04T20:41:16.267Z,5.52
2019-04-04T20:43:50.565Z,5.47
2019-04-04T20:46:20.410Z,5.48
2019-04-04T20:48:49.834Z,5.36
2019-04-04T20:51:19.227Z,5.36
2019-04-04T20:53:48.619Z,5.47
2019-04-04T20:56:17.982Z,5.50
2019-04-04T20:58:47.368Z,5.49
2019-04-04T21:01:16.898Z,5.54
2019-04-04T21:03:46.257Z,5.43
2019-04-04T21:06:15.770Z,5.50
2019-04-04T21:08:45.114Z,5.50
2019-04-04T21:11:14.464Z,5.52
2019-04-04T21:13:55.572Z,5.38
2019-04-04T21:16:20.498Z,5.58
2019-04-04T21:18:50.198Z,5.53
2019-04-04T21:21:20.174Z,5.56
2019-04-04T21:23:49.568Z,5.59
2019-04-04T21:26:18.901Z,5.52
2019-04-04T21:28:48.251Z,5.58
2019-04-04T21:31:17.603Z,5.75
2019-04-04T21:34:06.297Z,5.66
2019-04-04T21:36:40.987Z,5.59
2019-04-04T21:39:10.596Z,5.60
2019-04-04T21:41:39.979Z,5.60
2019-04-04T21:44:09.509Z,5.55
2019-04-04T21:47:01.675Z,5.71
2019-04-04T21:49:31.019Z,5.59
2019-04-04T21:52:00.620Z,5.63
2019-04-04T21:54:29.957Z,5.61
2019-04-04T21:56:59.298Z,5.61
2019-04-04T21:59:28.643Z,5.62
2019-04-04T22:08:28.583Z,5.59
2019-04-04T22:10:58.188Z,5.65
2019-04-04T22:13:27.538Z,5.62
2019-04-04T22:16:09.267Z,5.56
2019-04-04T22:18:38.621Z,5.59
2019-04-04T22:21:07.962Z,5.54
2019-04-04T22:23:37.435Z,5.62
2019-04-04T22:26:06.808Z,5.55
2019-04-04T22:28:36.129Z,5.65
2019-04-04T22:31:05.462Z,5.59
2019-04-04T22:33:34.809Z,5.73
2019-04-04T22:36:04.231Z,5.64
2019-04-04T22:38:33.571Z,5.60
2019-04-04T22:41:02.923Z,5.58
2019-04-04T22:43:32.265Z,5.52
2019-04-04T22:46:01.608Z,5.56
2019-04-04T22:48:30.973Z,5.54
2019-04-04T22:51:00.299Z,5.32
2019-04-04T22:53:29.647Z,5.33
2019-04-04T22:56:18.326Z,5.29
2019-04-04T22:58:47.668Z,5.23
2019-04-04T23:01:17.010Z,5.35
2019-04-04T23:03:46.365Z,5.26
2019-04-04T23:06:15.710Z,5.36
2019-04-04T23:08:45.045Z,5.51
2019-04-04T23:11:14.397Z,5.65
2019-04-04T23:13:43.740Z,5.54
2019-04-04T23:16:13.084Z,5.62
2019-04-04T23:18:42.675Z,5.68
2019-04-04T23:21:12.012Z,5.53
2019-04-04T23:23:41.353Z,5.51
2019-04-04T23:26:30.047Z,5.68
2019-04-04T23:28:59.388Z,5.65
2019-04-04T23:31:28.732Z,5.78
2019-04-04T23:34:10.328Z,5.72
2019-04-04T23:36:39.667Z,5.77
2019-04-04T23:39:34.026Z,5.71
2019-04-04T23:42:03.367Z,5.66
2019-04-04T23:44:32.696Z,5.51
2019-04-04T23:47:02.039Z,5.74
2019-04-04T23:49:31.381Z,5.58
2019-04-04T23:52:00.724Z,5.72
2019-04-04T23:54:37.247Z,5.77
2019-04-04T23:57:06.591Z,5.75
2019-04-04T23:59:35.935Z,5.78
